createdAt,value
2017-01-09T00:00:31.340Z,1027.95
2017-01-09T00:01:40.327Z,1027.97
2017-01-09T00:02:49.297Z,1027.98
2017-01-09T00:03:58.292Z,1027.98
2017-01-09T00:05:07.269Z,1027.96
2017-01-09T00:06:16.239Z,1027.93
2017-01-09T00:07:25.208Z,1027.91
2017-01-09T00:08:34.193Z,1027.98
2017-01-09T00:09:43.168Z,1027.96
2017-01-09T00:10:52.134Z,1027.98
2017-01-09T00:12:01.120Z,1028.01
2017-01-09T00:13:10.091Z,1027.97
2017-01-09T00:14:19.068Z,1027.95
2017-01-09T00:15:28.042Z,1027.98
2017-01-09T00:16:37.031Z,1027.95
2017-01-09T00:17:46.007Z,1027.98
2017-01-09T00:18:54.971Z,1027.96
2017-01-09T00:20:03.958Z,1027.98
2017-01-09T00:21:12.941Z,1027.96
2017-01-09T00:22:21.915Z,1027.93
2017-01-09T00:23:30.888Z,1027.9
2017-01-09T00:24:39.917Z,1027.92
2017-01-09T00:25:48.935Z,1027.86
2017-01-09T00:26:57.915Z,1027.86
2017-01-09T00:28:06.905Z,1027.85
2017-01-09T00:29:15.877Z,1027.86
2017-01-09T00:30:24.858Z,1027.86
2017-01-09T00:31:33.831Z,1027.83
2017-01-09T00:32:42.797Z,1027.82
2017-01-09T00:33:51.794Z,1027.79
2017-01-09T00:35:00.757Z,1027.82
2017-01-09T00:36:09.726Z,1027.8
2017-01-09T00:37:18.702Z,1027.76
2017-01-09T00:38:27.672Z,1027.7
2017-01-09T00:39:36.646Z,1027.72
2017-01-09T00:40:45.626Z,1027.71
2017-01-09T00:41:54.600Z,1027.71
2017-01-09T00:43:03.575Z,1027.71
2017-01-09T00:44:12.547Z,1027.7
2017-01-09T00:45:21.535Z,1027.7
2017-01-09T00:46:30.499Z,1027.72
2017-01-09T00:47:39.486Z,1027.69
2017-01-09T00:48:48.452Z,1027.73
2017-01-09T00:49:57.422Z,1027.73
2017-01-09T00:51:06.422Z,1027.77
2017-01-09T00:52:15.404Z,1027.77
2017-01-09T00:53:24.383Z,1027.78
2017-01-09T00:54:33.350Z,1027.78
2017-01-09T00:55:42.320Z,1027.76
2017-01-09T00:56:51.287Z,1027.76
2017-01-09T00:58:00.265Z,1027.76
2017-01-09T00:59:09.255Z,1027.81
2017-01-09T01:00:18.219Z,1027.8
2017-01-09T01:01:27.195Z,1027.79
2017-01-09T01:02:36.194Z,1027.78
2017-01-09T01:03:45.167Z,1027.8
2017-01-09T01:04:54.139Z,1027.8
2017-01-09T01:06:03.111Z,1027.79
2017-01-09T01:07:12.125Z,1027.82
2017-01-09T01:08:21.133Z,1027.78
2017-01-09T01:09:30.116Z,1027.74
2017-01-09T01:10:39.083Z,1027.73
2017-01-09T01:11:48.056Z,1027.72
2017-01-09T01:12:57.022Z,1027.72
2017-01-09T01:14:06.018Z,1027.73
2017-01-09T01:15:15.010Z,1027.7
2017-01-09T01:16:23.983Z,1027.71
2017-01-09T01:17:32.945Z,1027.66
2017-01-09T01:18:41.936Z,1027.68
2017-01-09T01:19:50.908Z,1027.68
2017-01-09T01:20:59.889Z,1027.66
2017-01-09T01:22:08.873Z,1027.69
2017-01-09T01:23:17.845Z,1027.72
2017-01-09T01:24:26.810Z,1027.67
2017-01-09T01:25:35.784Z,1027.66
2017-01-09T01:26:44.750Z,1027.66
2017-01-09T01:27:53.722Z,1027.65
2017-01-09T01:29:02.712Z,1027.66
2017-01-09T01:30:11.696Z,1027.64
2017-01-09T01:31:20.676Z,1027.62
2017-01-09T01:32:29.676Z,1027.61
2017-01-09T01:33:38.709Z,1027.62
2017-01-09T01:34:47.688Z,1027.62
2017-01-09T01:35:56.664Z,1027.56
2017-01-09T01:37:05.644Z,1027.57
2017-01-09T01:38:14.622Z,1027.54
2017-01-09T01:39:23.586Z,1027.54
2017-01-09T01:40:32.563Z,1027.59
2017-01-09T01:41:41.540Z,1027.62
2017-01-09T01:42:50.517Z,1027.57
2017-01-09T01:43:59.496Z,1027.56
2017-01-09T01:45:08.460Z,1027.55
2017-01-09T01:46:17.438Z,1027.55
2017-01-09T01:47:26.415Z,1027.51
2017-01-09T01:48:35.392Z,1027.49
2017-01-09T01:49:44.360Z,1027.5
2017-01-09T01:50:53.332Z,1027.49
2017-01-09T01:52:02.305Z,1027.45
2017-01-09T01:53:11.286Z,1027.43
2017-01-09T01:54:20.268Z,1027.44
2017-01-09T01:55:29.237Z,1027.46
2017-01-09T01:56:38.208Z,1027.43
2017-01-09T01:57:47.194Z,1027.43
2017-01-09T01:58:56.177Z,1027.43
2017-01-09T02:00:05.153Z,1027.43
2017-01-09T02:01:14.118Z,1027.46
2017-01-09T02:02:23.093Z,1027.43
2017-01-09T02:03:32.059Z,1027.44
2017-01-09T02:04:41.045Z,1027.41
2017-01-09T02:05:50.022Z,1027.41
2017-01-09T02:06:59.000Z,1027.41
2017-01-09T02:08:07.987Z,1027.4
2017-01-09T02:09:16.959Z,1027.4
2017-01-09T02:10:25.942Z,1027.4
2017-01-09T02:11:34.912Z,1027.41
2017-01-09T02:12:43.888Z,1027.42
2017-01-09T02:13:52.875Z,1027.39
2017-01-09T02:15:01.858Z,1027.4
2017-01-09T02:16:10.835Z,1027.39
2017-01-09T02:17:19.808Z,1027.4
2017-01-09T02:18:28.813Z,1027.37
2017-01-09T02:19:37.782Z,1027.41
2017-01-09T02:20:46.761Z,1027.37
2017-01-09T02:21:55.743Z,1027.32
2017-01-09T02:23:04.723Z,1027.28
2017-01-09T02:24:13.685Z,1027.26
2017-01-09T02:25:22.661Z,1027.24
2017-01-09T02:26:31.639Z,1027.27
2017-01-09T02:27:40.613Z,1027.27
2017-01-09T02:28:49.595Z,1027.25
2017-01-09T02:29:58.564Z,1027.21
2017-01-09T02:31:07.532Z,1027.19
2017-01-09T02:32:16.508Z,1027.2
2017-01-09T02:33:25.481Z,1027.2
2017-01-09T02:34:34.468Z,1027.13
2017-01-09T02:35:43.440Z,1027.1
2017-01-09T02:36:52.409Z,1027.1
2017-01-09T02:38:01.367Z,1027.16
2017-01-09T02:39:10.339Z,1027.18
2017-01-09T02:40:19.310Z,1027.22
2017-01-09T02:41:28.273Z,1027.2
2017-01-09T02:42:37.242Z,1027.17
2017-01-09T02:43:46.228Z,1027.18
2017-01-09T02:44:55.212Z,1027.19
2017-01-09T02:46:04.182Z,1027.13
2017-01-09T02:47:13.160Z,1027.17
2017-01-09T02:48:22.141Z,1027.12
2017-01-09T02:49:31.118Z,1027.19
2017-01-09T02:50:40.092Z,1027.15
2017-01-09T02:51:49.060Z,1027.15
2017-01-09T02:52:58.046Z,1027.16
2017-01-09T02:54:07.012Z,1027.13
2017-01-09T02:55:15.979Z,1027.17
2017-01-09T02:56:24.958Z,1027.15
2017-01-09T02:57:33.945Z,1027.12
2017-01-09T02:58:42.905Z,1027.13
2017-01-09T02:59:51.882Z,1027.12
2017-01-09T03:01:00.870Z,1027.12
2017-01-09T03:02:09.877Z,1027.2
2017-01-09T03:03:18.844Z,1027.17
2017-01-09T03:04:27.821Z,1027.14
2017-01-09T03:05:36.787Z,1027.14
2017-01-09T03:06:45.748Z,1027.15
2017-01-09T03:07:54.734Z,1027.18
2017-01-09T03:09:03.775Z,1027.19
2017-01-09T03:10:12.755Z,1027.18
2017-01-09T03:11:21.724Z,1027.17
2017-01-09T03:12:30.699Z,1027.17
2017-01-09T03:13:39.701Z,1027.15
2017-01-09T03:14:48.668Z,1027.15
2017-01-09T03:15:57.645Z,1027.17
2017-01-09T03:17:06.643Z,1027.17
2017-01-09T03:18:15.629Z,1027.17
2017-01-09T03:19:24.590Z,1027.16
2017-01-09T03:20:33.569Z,1027.18
2017-01-09T03:21:42.553Z,1027.15
2017-01-09T03:22:51.525Z,1027.14
2017-01-09T03:24:00.496Z,1027.15
2017-01-09T03:25:09.470Z,1027.1
2017-01-09T03:26:18.445Z,1027.05
2017-01-09T03:27:27.412Z,1027.05
2017-01-09T03:28:36.389Z,1027.05
2017-01-09T03:29:45.373Z,1027.02
2017-01-09T03:30:54.345Z,1026.98
2017-01-09T03:32:03.315Z,1026.96
2017-01-09T03:33:12.289Z,1026.92
2017-01-09T03:34:21.264Z,1026.92
2017-01-09T03:35:30.309Z,1026.92
2017-01-09T03:36:39.285Z,1026.92
2017-01-09T03:37:48.260Z,1026.91
2017-01-09T03:38:57.228Z,1026.89
2017-01-09T03:40:06.196Z,1026.84
2017-01-09T03:41:15.167Z,1026.84
2017-01-09T03:42:24.153Z,1026.83
2017-01-09T03:43:33.125Z,1026.81
2017-01-09T03:44:42.098Z,1026.8
2017-01-09T03:45:51.067Z,1026.76
2017-01-09T03:47:00.041Z,1026.75
2017-01-09T03:48:09.080Z,1026.72
2017-01-09T03:49:18.081Z,1026.7
2017-01-09T03:50:27.057Z,1026.68
2017-01-09T03:51:36.027Z,1026.66
2017-01-09T03:52:45.003Z,1026.62
2017-01-09T03:53:53.966Z,1026.6
2017-01-09T03:55:02.953Z,1026.64
2017-01-09T03:56:11.922Z,1026.59
2017-01-09T03:57:20.901Z,1026.64
2017-01-09T03:58:29.883Z,1026.56
2017-01-09T03:59:38.895Z,1026.55
2017-01-09T04:00:47.869Z,1026.53
2017-01-09T04:01:56.854Z,1026.55
2017-01-09T04:03:05.824Z,1026.59
2017-01-09T04:04:14.797Z,1026.58
2017-01-09T04:05:23.782Z,1026.5
2017-01-09T04:06:32.760Z,1026.47
2017-01-09T04:07:41.727Z,1026.44
2017-01-09T04:08:50.697Z,1026.42
2017-01-09T04:09:59.660Z,1026.39
2017-01-09T04:11:08.637Z,1026.41
2017-01-09T04:12:17.614Z,1026.38
2017-01-09T04:13:26.581Z,1026.34
2017-01-09T04:14:35.538Z,1026.29
2017-01-09T04:15:44.523Z,1026.29
2017-01-09T04:16:53.486Z,1026.28
2017-01-09T04:18:02.457Z,1026.28
2017-01-09T04:19:11.438Z,1026.24
2017-01-09T04:20:20.408Z,1026.21
2017-01-09T04:21:29.377Z,1026.19
2017-01-09T04:22:38.349Z,1026.19
2017-01-09T04:23:47.320Z,1026.17
2017-01-09T04:24:56.295Z,1026.18
2017-01-09T04:26:05.673Z,1026.13
2017-01-09T04:27:14.642Z,1026.11
2017-01-09T04:28:23.605Z,1026.14
2017-01-09T04:29:32.582Z,1026.06
2017-01-09T04:30:41.562Z,1026.07
2017-01-09T04:31:50.526Z,1026.12
2017-01-09T04:32:59.495Z,1026.1
2017-01-09T04:34:08.474Z,1026.16
2017-01-09T04:35:17.435Z,1026.12
2017-01-09T04:36:26.407Z,1026.16
2017-01-09T04:37:35.382Z,1026.16
2017-01-09T04:38:44.356Z,1026.13
2017-01-09T04:39:53.443Z,1026.1
2017-01-09T04:41:02.558Z,1026.07
2017-01-09T04:42:11.527Z,1026.02
2017-01-09T04:43:20.484Z,1026
2017-01-09T04:44:29.456Z,1025.94
2017-01-09T04:45:38.422Z,1025.91
2017-01-09T04:46:47.419Z,1025.91
2017-01-09T04:47:56.395Z,1025.91
2017-01-09T04:49:05.362Z,1025.84
2017-01-09T04:50:14.340Z,1025.86
2017-01-09T04:51:23.314Z,1025.92
2017-01-09T04:52:32.285Z,1025.93
2017-01-09T04:53:41.252Z,1025.87
2017-01-09T04:54:50.217Z,1025.87
2017-01-09T04:55:59.198Z,1025.87
2017-01-09T04:57:08.166Z,1025.91
2017-01-09T04:58:17.152Z,1025.93
2017-01-09T04:59:26.124Z,1025.88
2017-01-09T05:00:35.099Z,1025.89
2017-01-09T05:01:44.069Z,1025.83
2017-01-09T05:02:53.046Z,1025.86
2017-01-09T05:04:02.007Z,1025.83
2017-01-09T05:05:10.982Z,1025.84
2017-01-09T05:06:19.957Z,1025.83
2017-01-09T05:07:28.931Z,1025.85
2017-01-09T05:08:37.916Z,1025.91
2017-01-09T05:09:46.876Z,1025.88
2017-01-09T05:10:55.851Z,1025.88
2017-01-09T05:12:04.836Z,1025.88
2017-01-09T05:13:13.809Z,1025.89
2017-01-09T05:14:22.771Z,1025.89
2017-01-09T05:15:31.745Z,1025.86
2017-01-09T05:16:40.721Z,1025.83
2017-01-09T05:17:49.686Z,1025.84
2017-01-09T05:18:58.663Z,1025.8
2017-01-09T05:20:07.646Z,1025.82
2017-01-09T05:21:16.654Z,1025.85
2017-01-09T05:22:25.628Z,1025.82
2017-01-09T05:23:34.588Z,1025.81
2017-01-09T05:24:43.559Z,1025.82
2017-01-09T05:25:52.540Z,1025.8
2017-01-09T05:27:01.523Z,1025.77
2017-01-09T05:28:10.518Z,1025.75
2017-01-09T05:29:19.489Z,1025.7
2017-01-09T05:30:28.471Z,1025.73
2017-01-09T05:31:37.438Z,1025.74
2017-01-09T05:32:46.420Z,1025.71
2017-01-09T05:33:55.384Z,1025.73
2017-01-09T05:35:04.348Z,1025.68
2017-01-09T05:36:13.324Z,1025.65
2017-01-09T05:37:22.397Z,1025.68
2017-01-09T05:38:32.069Z,1025.68
2017-01-09T05:39:41.027Z,1025.67
2017-01-09T05:40:50.429Z,1025.64
2017-01-09T05:41:59.394Z,1025.64
2017-01-09T05:43:08.393Z,1025.64
2017-01-09T05:44:17.542Z,1025.63
2017-01-09T05:45:26.527Z,1025.59
2017-01-09T05:46:35.603Z,1025.6
2017-01-09T05:47:45.442Z,1025.58
2017-01-09T05:48:54.442Z,1025.54
2017-01-09T05:50:03.421Z,1025.53
2017-01-09T05:51:12.397Z,1025.55
2017-01-09T05:52:21.370Z,1025.49
2017-01-09T05:53:30.350Z,1025.47
2017-01-09T05:54:39.309Z,1025.47
2017-01-09T05:55:48.283Z,1025.52
2017-01-09T05:56:57.270Z,1025.44
2017-01-09T05:58:06.237Z,1025.45
2017-01-09T05:59:15.215Z,1025.44
2017-01-09T06:00:24.201Z,1025.4
2017-01-09T06:01:33.176Z,1025.41
2017-01-09T06:02:42.154Z,1025.33
2017-01-09T06:03:51.128Z,1025.33
2017-01-09T06:05:00.092Z,1025.27
2017-01-09T06:06:09.070Z,1025.28
2017-01-09T06:07:18.042Z,1025.23
2017-01-09T06:08:27.013Z,1025.21
2017-01-09T06:09:36.002Z,1025.22
2017-01-09T06:10:44.972Z,1025.22
2017-01-09T06:11:53.941Z,1025.16
2017-01-09T06:13:02.914Z,1025.11
2017-01-09T06:14:11.885Z,1025.09
2017-01-09T06:15:20.865Z,1025.1
2017-01-09T06:16:29.832Z,1025.12
2017-01-09T06:17:38.819Z,1025.2
2017-01-09T06:18:47.792Z,1025.2
2017-01-09T06:19:56.760Z,1025.22
2017-01-09T06:21:05.734Z,1025.2
2017-01-09T06:22:14.699Z,1025.26
2017-01-09T06:23:23.676Z,1025.2
2017-01-09T06:24:32.647Z,1025.19
2017-01-09T06:25:41.638Z,1025.19
2017-01-09T06:26:50.606Z,1025.14
2017-01-09T06:27:59.590Z,1025.14
2017-01-09T06:29:08.570Z,1025.14
2017-01-09T06:30:17.545Z,1025.11
2017-01-09T06:31:26.521Z,1025.1
2017-01-09T06:32:35.495Z,1025.15
2017-01-09T06:33:44.469Z,1025.1
2017-01-09T06:34:53.438Z,1025.14
2017-01-09T06:36:02.411Z,1025.14
2017-01-09T06:37:11.382Z,1025.1
2017-01-09T06:38:20.366Z,1025.12
2017-01-09T06:39:29.333Z,1025.09
2017-01-09T06:40:38.314Z,1025.08
2017-01-09T06:41:47.306Z,1025.13
2017-01-09T06:42:56.282Z,1025.11
2017-01-09T06:44:05.248Z,1025.15
2017-01-09T06:45:14.218Z,1025.13
2017-01-09T06:46:23.194Z,1025.2
2017-01-09T06:47:32.167Z,1025.19
2017-01-09T06:48:41.149Z,1025.2
2017-01-09T06:49:50.116Z,1025.2
2017-01-09T06:50:59.097Z,1025.22
2017-01-09T06:52:08.075Z,1025.22
2017-01-09T06:53:17.041Z,1025.22
2017-01-09T06:54:26.014Z,1025.25
2017-01-09T06:55:34.982Z,1025.23
2017-01-09T06:56:43.954Z,1025.24
2017-01-09T06:57:52.929Z,1025.22
2017-01-09T06:59:01.917Z,1025.24
2017-01-09T07:00:10.937Z,1025.24
2017-01-09T07:01:19.894Z,1025.23
2017-01-09T07:02:28.862Z,1025.26
2017-01-09T07:03:37.857Z,1025.24
2017-01-09T07:04:46.826Z,1025.24
2017-01-09T07:05:55.794Z,1025.27
2017-01-09T07:07:04.764Z,1025.27
2017-01-09T07:08:13.735Z,1025.28
2017-01-09T07:09:22.716Z,1025.27
2017-01-09T07:10:31.698Z,1025.28
2017-01-09T07:11:40.671Z,1025.29
2017-01-09T07:12:49.646Z,1025.3
2017-01-09T07:13:58.611Z,1025.27
2017-01-09T07:15:07.591Z,1025.31
2017-01-09T07:16:16.571Z,1025.28
2017-01-09T07:17:25.555Z,1025.25
2017-01-09T07:18:34.557Z,1025.28
2017-01-09T07:19:43.540Z,1025.33
2017-01-09T07:20:52.927Z,1025.33
2017-01-09T07:22:01.897Z,1025.33
2017-01-09T07:23:10.897Z,1025.3
2017-01-09T07:24:20.328Z,1025.32
2017-01-09T07:25:29.296Z,1025.29
2017-01-09T07:26:38.299Z,1025.32
2017-01-09T07:27:47.286Z,1025.27
2017-01-09T07:28:56.285Z,1025.3
2017-01-09T07:30:05.519Z,1025.3
2017-01-09T07:31:17.060Z,1025.33
2017-01-09T07:32:26.791Z,1025.31
2017-01-09T07:33:38.151Z,1025.33
2017-01-09T07:34:47.135Z,1025.38
2017-01-09T07:35:56.127Z,1025.36
2017-01-09T07:37:05.688Z,1025.37
2017-01-09T07:38:15.086Z,1025.41
2017-01-09T07:39:24.062Z,1025.42
2017-01-09T07:40:33.055Z,1025.38
2017-01-09T07:41:42.102Z,1025.39
2017-01-09T07:42:51.173Z,1025.37
2017-01-09T07:44:00.154Z,1025.38
2017-01-09T07:45:09.126Z,1025.39
2017-01-09T07:46:18.107Z,1025.44
2017-01-09T07:47:27.090Z,1025.42
2017-01-09T07:48:36.058Z,1025.42
2017-01-09T07:49:45.042Z,1025.36
2017-01-09T07:50:54.003Z,1025.36
2017-01-09T07:52:02.981Z,1025.32
2017-01-09T07:53:11.983Z,1025.29
2017-01-09T07:54:20.998Z,1025.32
2017-01-09T07:55:29.982Z,1025.34
2017-01-09T07:56:41.160Z,1025.38
2017-01-09T07:57:52.214Z,1025.45
2017-01-09T07:59:01.193Z,1025.45
2017-01-09T08:00:10.190Z,1025.48
2017-01-09T08:01:19.220Z,1025.45
2017-01-09T08:02:29.547Z,1025.46
2017-01-09T08:03:38.566Z,1025.49
2017-01-09T08:04:47.539Z,1025.46
2017-01-09T08:05:56.543Z,1025.48
2017-01-09T08:07:05.521Z,1025.5
2017-01-09T08:08:14.495Z,1025.5
2017-01-09T08:09:23.472Z,1025.55
2017-01-09T08:10:32.456Z,1025.53
2017-01-09T08:11:42.929Z,1025.5
2017-01-09T08:12:51.910Z,1025.41
2017-01-09T08:14:00.883Z,1025.37
2017-01-09T08:15:09.850Z,1025.42
2017-01-09T08:16:18.889Z,1025.42
2017-01-09T08:17:28.522Z,1025.44
2017-01-09T08:18:39.449Z,1025.43
2017-01-09T08:19:49.784Z,1025.41
2017-01-09T08:20:58.769Z,1025.4
2017-01-09T08:22:07.810Z,1025.42
2017-01-09T08:23:16.801Z,1025.4
2017-01-09T08:24:25.793Z,1025.37
2017-01-09T08:25:34.783Z,1025.35
2017-01-09T08:26:43.750Z,1025.34
2017-01-09T08:27:52.734Z,1025.34
2017-01-09T08:29:01.723Z,1025.32
2017-01-09T08:30:10.749Z,1025.25
2017-01-09T08:31:19.738Z,1025.2
2017-01-09T08:32:28.714Z,1025.2
2017-01-09T08:33:37.692Z,1025.19
2017-01-09T08:34:46.668Z,1025.16
2017-01-09T08:35:55.663Z,1025.19
2017-01-09T08:37:04.667Z,1025.21
2017-01-09T08:38:13.637Z,1025.18
2017-01-09T08:39:22.619Z,1025.15
2017-01-09T08:40:31.602Z,1025.14
2017-01-09T08:41:40.597Z,1025.14
2017-01-09T08:42:49.580Z,1025.13
2017-01-09T08:43:58.593Z,1025.13
2017-01-09T08:45:07.567Z,1025.05
2017-01-09T08:46:16.538Z,1025.03
2017-01-09T08:47:25.551Z,1024.99
2017-01-09T08:48:34.530Z,1025
2017-01-09T08:49:43.515Z,1025.04
2017-01-09T08:50:52.491Z,1025.03
2017-01-09T08:52:01.461Z,1025.05
2017-01-09T08:53:10.435Z,1025.07
2017-01-09T08:54:19.506Z,1025.05
2017-01-09T08:55:28.472Z,1025.02
2017-01-09T08:56:37.477Z,1025.03
2017-01-09T08:57:46.451Z,1025.04
2017-01-09T08:58:55.410Z,1024.99
2017-01-09T09:00:04.392Z,1024.91
2017-01-09T09:01:13.394Z,1024.91
2017-01-09T09:02:22.367Z,1024.91
2017-01-09T09:03:31.338Z,1024.88
2017-01-09T09:04:40.305Z,1024.85
2017-01-09T09:05:49.285Z,1024.89
2017-01-09T09:06:58.267Z,1024.86
2017-01-09T09:08:07.245Z,1024.86
2017-01-09T09:09:16.243Z,1024.85
2017-01-09T09:10:25.224Z,1024.88
2017-01-09T09:11:34.211Z,1024.84
2017-01-09T09:12:43.186Z,1024.88
2017-01-09T09:13:52.179Z,1024.9
2017-01-09T09:15:01.150Z,1024.94
2017-01-09T09:16:10.125Z,1024.92
2017-01-09T09:17:19.110Z,1024.92
2017-01-09T09:18:28.093Z,1024.9
2017-01-09T09:19:37.075Z,1024.88
2017-01-09T09:20:46.047Z,1024.88
2017-01-09T09:21:55.026Z,1024.89
2017-01-09T09:23:03.998Z,1024.89
2017-01-09T09:24:12.982Z,1024.9
2017-01-09T09:25:21.954Z,1024.89
2017-01-09T09:26:30.926Z,1024.88
2017-01-09T09:27:39.889Z,1024.84
2017-01-09T09:28:48.861Z,1024.85
2017-01-09T09:29:57.844Z,1024.87
2017-01-09T09:31:06.813Z,1024.87
2017-01-09T09:32:15.807Z,1024.88
2017-01-09T09:33:24.803Z,1024.88
2017-01-09T09:34:33.775Z,1024.92
2017-01-09T09:35:42.745Z,1024.88
2017-01-09T09:36:51.727Z,1024.91
2017-01-09T09:38:00.708Z,1024.9
2017-01-09T09:39:09.678Z,1024.93
2017-01-09T09:40:18.654Z,1024.92
2017-01-09T09:41:27.618Z,1024.91
2017-01-09T09:42:36.600Z,1024.92
2017-01-09T09:43:45.578Z,1024.91
2017-01-09T09:44:54.543Z,1024.92
2017-01-09T09:46:03.518Z,1024.89
2017-01-09T09:47:12.498Z,1024.89
2017-01-09T09:48:21.465Z,1024.87
2017-01-09T09:49:30.433Z,1024.85
2017-01-09T09:50:39.427Z,1024.85
2017-01-09T09:51:48.393Z,1024.85
2017-01-09T09:52:57.367Z,1024.82
2017-01-09T09:54:06.355Z,1024.77
2017-01-09T09:55:15.340Z,1024.75
2017-01-09T09:56:24.318Z,1024.81
2017-01-09T09:57:33.295Z,1024.8
2017-01-09T09:58:42.297Z,1024.77
2017-01-09T09:59:51.271Z,1024.75
2017-01-09T10:01:00.239Z,1024.71
2017-01-09T10:02:09.210Z,1024.67
2017-01-09T10:03:18.184Z,1024.67
2017-01-09T10:04:27.175Z,1024.7
2017-01-09T10:05:36.144Z,1024.68
2017-01-09T10:06:45.121Z,1024.71
2017-01-09T10:07:54.100Z,1024.71
2017-01-09T10:09:03.077Z,1024.7
2017-01-09T10:10:12.047Z,1024.71
2017-01-09T10:11:21.015Z,1024.73
2017-01-09T10:12:30.001Z,1024.69
2017-01-09T10:13:38.970Z,1024.66
2017-01-09T10:14:48.349Z,1024.64
2017-01-09T10:15:57.331Z,1024.63
2017-01-09T10:17:06.302Z,1024.65
2017-01-09T10:18:15.276Z,1024.61
2017-01-09T10:19:24.260Z,1024.59
2017-01-09T10:20:33.238Z,1024.49
2017-01-09T10:21:42.205Z,1024.47
2017-01-09T10:22:51.192Z,1024.48
2017-01-09T10:24:00.166Z,1024.49
2017-01-09T10:25:09.152Z,1024.52
2017-01-09T10:26:18.127Z,1024.45
2017-01-09T10:27:27.107Z,1024.42
2017-01-09T10:28:36.075Z,1024.43
2017-01-09T10:29:45.054Z,1024.4
2017-01-09T10:30:54.015Z,1024.43
2017-01-09T10:32:03.001Z,1024.46
2017-01-09T10:33:12.406Z,1024.43
2017-01-09T10:34:21.385Z,1024.4
2017-01-09T10:35:30.352Z,1024.4
2017-01-09T10:36:39.324Z,1024.43
2017-01-09T10:37:48.305Z,1024.41
2017-01-09T10:38:57.282Z,1024.39
2017-01-09T10:40:06.278Z,1024.39
2017-01-09T10:41:15.244Z,1024.35
2017-01-09T10:42:24.209Z,1024.31
2017-01-09T10:43:33.390Z,1024.29
2017-01-09T10:44:42.392Z,1024.29
2017-01-09T10:45:51.375Z,1024.25
2017-01-09T10:47:00.369Z,1024.27
2017-01-09T10:48:09.344Z,1024.24
2017-01-09T10:49:18.414Z,1024.21
2017-01-09T10:50:27.434Z,1024.23
2017-01-09T10:51:36.465Z,1024.24
2017-01-09T10:52:45.517Z,1024.24
2017-01-09T10:53:54.491Z,1024.26
2017-01-09T10:55:03.460Z,1024.23
2017-01-09T10:56:12.441Z,1024.19
2017-01-09T10:57:21.424Z,1024.17
2017-01-09T10:58:30.402Z,1024.13
2017-01-09T10:59:39.366Z,1024.13
2017-01-09T11:00:48.335Z,1024.1
2017-01-09T11:01:57.308Z,1024.04
2017-01-09T11:03:06.279Z,1024.09
2017-01-09T11:04:15.268Z,1024.09
2017-01-09T11:05:24.242Z,1024.07
2017-01-09T11:06:33.207Z,1024.08
2017-01-09T11:07:42.196Z,1024.06
2017-01-09T11:08:51.164Z,1024.06
2017-01-09T11:10:00.168Z,1024.07
2017-01-09T11:11:09.171Z,1024.02
2017-01-09T11:12:18.151Z,1023.98
2017-01-09T11:13:27.124Z,1024
2017-01-09T11:14:36.097Z,1023.95
2017-01-09T11:15:45.099Z,1023.94
2017-01-09T11:16:54.078Z,1023.88
2017-01-09T11:18:03.055Z,1023.86
2017-01-09T11:19:12.031Z,1023.81
2017-01-09T11:20:21.010Z,1023.78
2017-01-09T11:21:29.987Z,1023.74
2017-01-09T11:22:38.968Z,1023.7
2017-01-09T11:23:47.937Z,1023.66
2017-01-09T11:24:56.915Z,1023.7
2017-01-09T11:26:05.891Z,1023.65
2017-01-09T11:27:15.298Z,1023.58
2017-01-09T11:28:24.286Z,1023.6
2017-01-09T11:29:33.256Z,1023.57
2017-01-09T11:30:42.235Z,1023.53
2017-01-09T11:31:51.215Z,1023.49
2017-01-09T11:33:00.195Z,1023.47
2017-01-09T11:34:09.177Z,1023.43
2017-01-09T11:35:18.175Z,1023.44
2017-01-09T11:36:27.159Z,1023.41
2017-01-09T11:37:36.142Z,1023.4
2017-01-09T11:38:45.130Z,1023.44
2017-01-09T11:39:54.128Z,1023.41
2017-01-09T11:41:03.120Z,1023.39
2017-01-09T11:42:12.091Z,1023.4
2017-01-09T11:43:21.069Z,1023.33
2017-01-09T11:44:30.047Z,1023.33
2017-01-09T11:45:39.031Z,1023.36
2017-01-09T11:46:48.008Z,1023.32
2017-01-09T11:47:56.982Z,1023.3
2017-01-09T11:49:05.957Z,1023.26
2017-01-09T11:50:14.922Z,1023.22
2017-01-09T11:51:24.249Z,1023.17
2017-01-09T11:52:33.942Z,1023.18
2017-01-09T11:53:42.919Z,1023.14
2017-01-09T11:54:51.894Z,1023.11
2017-01-09T11:56:00.867Z,1023.06
2017-01-09T11:57:09.856Z,1023.07
2017-01-09T11:58:18.835Z,1023.06
2017-01-09T11:59:27.814Z,1023.01
2017-01-09T12:00:36.785Z,1022.98
2017-01-09T12:01:45.755Z,1023.02
2017-01-09T12:02:54.747Z,1022.93
2017-01-09T12:04:03.721Z,1022.93
2017-01-09T12:05:12.703Z,1022.9
2017-01-09T12:06:21.747Z,1022.91
2017-01-09T12:07:31.936Z,1022.88
2017-01-09T12:08:40.938Z,1022.86
2017-01-09T12:09:50.336Z,1022.82
2017-01-09T12:10:59.313Z,1022.73
2017-01-09T12:12:08.284Z,1022.75
2017-01-09T12:13:17.264Z,1022.76
2017-01-09T12:14:26.230Z,1022.72
2017-01-09T12:15:35.217Z,1022.66
2017-01-09T12:16:44.197Z,1022.6
2017-01-09T12:17:53.162Z,1022.62
2017-01-09T12:19:02.145Z,1022.6
2017-01-09T12:20:11.123Z,1022.59
2017-01-09T12:21:21.146Z,1022.63
2017-01-09T12:22:30.576Z,1022.58
2017-01-09T12:23:39.552Z,1022.6
2017-01-09T12:24:48.533Z,1022.61
2017-01-09T12:25:57.502Z,1022.59
2017-01-09T12:27:06.479Z,1022.57
2017-01-09T12:28:15.460Z,1022.58
2017-01-09T12:29:24.441Z,1022.58
2017-01-09T12:30:33.470Z,1022.59
2017-01-09T12:31:42.463Z,1022.59
2017-01-09T12:32:51.430Z,1022.58
2017-01-09T12:34:00.418Z,1022.6
2017-01-09T12:35:09.399Z,1022.59
2017-01-09T12:36:18.398Z,1022.57
2017-01-09T12:37:27.392Z,1022.57
2017-01-09T12:38:36.368Z,1022.6
2017-01-09T12:39:45.366Z,1022.56
2017-01-09T12:40:55.057Z,1022.61
2017-01-09T12:42:04.623Z,1022.61
2017-01-09T12:43:13.762Z,1022.6
2017-01-09T12:44:22.754Z,1022.59
2017-01-09T12:45:31.723Z,1022.57
2017-01-09T12:46:40.706Z,1022.53
2017-01-09T12:47:49.698Z,1022.52
2017-01-09T12:48:58.714Z,1022.56
2017-01-09T12:50:07.704Z,1022.54
2017-01-09T12:51:16.687Z,1022.56
2017-01-09T12:52:25.663Z,1022.59
2017-01-09T12:53:34.650Z,1022.57
2017-01-09T12:54:43.639Z,1022.57
2017-01-09T12:55:52.620Z,1022.59
2017-01-09T12:57:01.584Z,1022.59
2017-01-09T12:58:10.572Z,1022.58
2017-01-09T12:59:19.600Z,1022.61
2017-01-09T13:00:28.588Z,1022.61
2017-01-09T13:01:37.564Z,1022.6
2017-01-09T13:02:46.597Z,1022.57
2017-01-09T13:03:55.609Z,1022.58
2017-01-09T13:05:04.591Z,1022.55
2017-01-09T13:06:13.606Z,1022.49
2017-01-09T13:07:22.631Z,1022.5
2017-01-09T13:08:31.616Z,1022.44
2017-01-09T13:09:40.593Z,1022.44
2017-01-09T13:10:49.623Z,1022.4
2017-01-09T13:11:58.603Z,1022.39
2017-01-09T13:13:07.589Z,1022.39
2017-01-09T13:14:16.580Z,1022.38
2017-01-09T13:15:25.559Z,1022.38
2017-01-09T13:16:34.550Z,1022.34
2017-01-09T13:17:43.534Z,1022.34
2017-01-09T13:18:52.508Z,1022.31
2017-01-09T13:20:01.496Z,1022.32
2017-01-09T13:21:10.468Z,1022.35
2017-01-09T13:22:19.450Z,1022.33
2017-01-09T13:23:28.429Z,1022.33
2017-01-09T13:24:37.472Z,1022.32
2017-01-09T13:25:46.469Z,1022.3
2017-01-09T13:26:55.447Z,1022.3
2017-01-09T13:28:04.434Z,1022.32
2017-01-09T13:29:13.415Z,1022.26
2017-01-09T13:30:22.384Z,1022.21
2017-01-09T13:31:31.377Z,1022.18
2017-01-09T13:32:40.347Z,1022.13
2017-01-09T13:33:49.324Z,1022.11
2017-01-09T13:34:58.298Z,1022.09
2017-01-09T13:36:07.280Z,1022.13
2017-01-09T13:37:16.285Z,1022.1
2017-01-09T13:38:25.262Z,1022.13
2017-01-09T13:39:34.250Z,1022.12
2017-01-09T13:40:43.224Z,1022.1
2017-01-09T13:41:52.205Z,1022.1
2017-01-09T13:43:01.193Z,1022.12
2017-01-09T13:44:10.161Z,1022.08
2017-01-09T13:45:19.154Z,1022.07
2017-01-09T13:46:28.136Z,1022.05
2017-01-09T13:47:37.125Z,1022.04
2017-01-09T13:48:46.104Z,1022.05
2017-01-09T13:49:55.088Z,1022.01
2017-01-09T13:51:04.058Z,1022.02
2017-01-09T13:52:13.042Z,1022
2017-01-09T13:53:22.023Z,1021.98
2017-01-09T13:54:30.993Z,1021.96
2017-01-09T13:55:39.967Z,1021.94
2017-01-09T13:56:48.945Z,1021.93
2017-01-09T13:57:57.914Z,1021.89